Time;durP1;ratioP1;P1;durP2;ratioP2;P2;SDS_P1;SDS_P2;PMS_P1;PMS_P2;Temp;Humidity;BMP_temperature;BMP_pressure;BME280_temperature;BME280_humidity;BME280_pressure;Samples;Min_cycle;Max_cycle;Signal;HPM_P1;HPM_P2
2023/05/20 00:09:03;;;;;;;3.70;3.20;;;;;;;;;;4871479;29;20212;-26
2023/05/20 00:15:18;;;;;;;;;;;;;;;;;;;;;
2023/05/20 00:18:14;;;;;;;4.43;2.60;;;;;;;;;;4953909;28;20217;-29
2023/05/20 00:21:19;;;;;;;;;;;;;;;;;;;;;
2023/05/20 00:43:21;;;;;;;;;;;;;;;;;;;;;
2023/05/20 00:46:18;;;;;;;2.83;2.63;;;;;;;;;;4897211;29;20230;-26
2023/05/20 00:49:27;;;;;;;;;;;;;;;;;;;;;
2023/05/20 01:04:45;;;;;;;;;;;;;;;;;;;;;
2023/05/20 01:13:52;;;;;;;4.40;2.90;;;;;;;;;;4806676;29;20217;-29
2023/05/20 01:16:51;;;;;;;4.47;3.13;;;;;;;;;;4838343;29;20267;-26
2023/05/20 01:34:48;;;;;;;;;;;;;;;;;;;;;
2023/05/20 01:37:24;;;;;;;3.77;3.27;;;;;;;;;;5052748;28;20581;-26
2023/05/20 02:00:18;;;;;;;3.07;2.77;;;;;;;;;;5016170;28;20224;-28
2023/05/20 02:03:05;;;;;;;;;;;;;;;;;;;;;
2023/05/20 02:15:26;;;;;;;5.27;3.60;;;;;;;;;;5021330;28;20222;-28
2023/05/20 02:21:29;;;;;;;4.23;3.60;;;;;;;;;;4854234;29;20322;-27
2023/05/20 02:24:22;;;;;;;;;;;;;;;;;;;;;
2023/05/20 02:30:22;;;;;;;6.13;3.53;;;;;;;;;;4953784;28;20635;-27
2023/05/20 02:33:37;;;;;;;;;;;;;;;;;;;;;
2023/05/20 02:43:47;;;;;;;3.00;2.80;;;;;;;;;;4933025;29;20298;-26
2023/05/20 03:04:56;;;;;;;3.43;3.03;;;;;;;;;;4835414;29;20217;-26
2023/05/20 03:11:08;;;;;;;;;;;;;;;;;;;;;
2023/05/20 03:25:51;;;;;;;2.87;2.60;;;;;;;;;;5129689;22;20241;-29
2023/05/20 03:34:48;;;;;;;;;;;;;;;;;;;;;
2023/05/20 03:49:40;;;;;;;3.73;3.20;;;;;;;;;;5013554;28;20267;-27
2023/05/20 03:52:47;;;;;;;3.23;2.80;;;;;;;;;;5151226;22;20302;-27
2023/05/20 04:07:48;;;;;;;3.57;3.27;;;;;;;;;;5037950;28;20205;-29
2023/05/20 04:19:22;;;;;;;6.33;3.57;;;;;;;;;;5199918;22;20264;-31
2023/05/20 04:21:49;;;;;;;3.60;3.00;;;;;;;;;;5092696;28;20205;-32
2023/05/20 04:24:16;;;;;;;4.80;3.37;;;;;;;;;;5079694;28;20220;-35
2023/05/20 04:26:44;;;;;;;4.17;3.77;;;;;;;;;;5088528;28;20221;-33
2023/05/20 04:29:14;;;;;;;3.57;3.17;;;;;;;;;;5084160;28;20204;-34
2023/05/20 04:31:41;;;;;;;3.07;2.87;;;;;;;;;;5073602;28;20205;-29
2023/05/20 04:34:09;;;;;;;3.40;3.07;;;;;;;;;;5086281;28;20208;-33
2023/05/20 04:36:37;;;;;;;3.77;3.13;;;;;;;;;;5089351;28;20707;-33
2023/05/20 04:39:06;;;;;;;3.40;3.10;;;;;;;;;;5088780;28;20212;-31
2023/05/20 04:41:35;;;;;;;3.77;3.17;;;;;;;;;;5081377;28;20295;-30
2023/05/20 04:44:02;;;;;;;3.60;3.17;;;;;;;;;;5084844;28;20197;-35
2023/05/20 04:46:32;;;;;;;4.47;3.30;;;;;;;;;;5081194;28;20218;-30
2023/05/20 04:48:59;;;;;;;4.30;3.90;;;;;;;;;;5090949;28;20201;-34
2023/05/20 04:51:27;;;;;;;4.20;3.80;;;;;;;;;;5073469;28;20211;-34
2023/05/20 04:53:55;;;;;;;3.70;3.40;;;;;;;;;;5086902;28;20207;-31
2023/05/20 04:56:22;;;;;;;4.17;3.77;;;;;;;;;;5088208;28;20236;-33
2023/05/20 04:58:49;;;;;;;3.57;3.10;;;;;;;;;;5086109;28;20291;-34
2023/05/20 05:01:16;;;;;;;5.00;3.77;;;;;;;;;;5079912;28;20209;-33
2023/05/20 05:03:45;;;;;;;3.63;3.33;;;;;;;;;;5091087;28;20212;-34
2023/05/20 05:06:12;;;;;;;3.43;3.13;;;;;;;;;;5090797;28;20260;-34
2023/05/20 05:08:39;;;;;;;4.13;3.73;;;;;;;;;;5080004;28;20216;-35
2023/05/20 05:11:06;;;;;;;4.53;3.30;;;;;;;;;;5080496;28;20265;-32
2023/05/20 05:13:33;;;;;;;3.90;3.60;;;;;;;;;;5087172;28;20208;-31
2023/05/20 05:16:01;;;;;;;7.00;4.07;;;;;;;;;;5081594;28;20618;-32
2023/05/20 05:18:28;;;;;;;5.13;3.40;;;;;;;;;;5084990;28;20299;-33
2023/05/20 05:21:03;;;;;;;8.83;4.10;;;;;;;;;;5086804;28;20203;-34
2023/05/20 05:23:30;;;;;;;4.70;3.70;;;;;;;;;;5087683;28;20233;-35
2023/05/20 05:25:57;;;;;;;5.33;3.67;;;;;;;;;;5075383;28;20773;-31
2023/05/20 05:28:28;;;;;;;5.13;3.93;;;;;;;;;;5085672;28;20225;-31
2023/05/20 05:30:55;;;;;;;5.07;3.77;;;;;;;;;;5082837;28;20206;-32
2023/05/20 05:33:23;;;;;;;4.37;3.40;;;;;;;;;;5085252;28;20214;-31
2023/05/20 05:35:50;;;;;;;4.90;3.90;;;;;;;;;;5086455;28;20229;-32
2023/05/20 05:38:19;;;;;;;4.40;3.73;;;;;;;;;;5087532;28;20836;-35
2023/05/20 05:40:46;;;;;;;4.77;3.80;;;;;;;;;;5078471;28;20236;-35
2023/05/20 05:43:13;;;;;;;4.40;3.60;;;;;;;;;;5078532;28;20198;-32
2023/05/20 05:45:41;;;;;;;4.73;3.77;;;;;;;;;;5081552;28;20315;-34
2023/05/20 05:48:09;;;;;;;5.23;3.60;;;;;;;;;;5081985;28;20209;-33
2023/05/20 05:50:36;;;;;;;3.80;3.40;;;;;;;;;;5086995;28;20212;-34
2023/05/20 05:53:03;;;;;;;5.37;3.80;;;;;;;;;;5085707;28;20212;-32
2023/05/20 05:55:32;;;;;;;4.83;3.20;;;;;;;;;;5080315;28;20225;-32
2023/05/20 05:57:59;;;;;;;3.93;3.60;;;;;;;;;;5078799;28;20241;-33
2023/05/20 06:00:26;;;;;;;4.17;3.77;;;;;;;;;;5084786;28;20636;-34
2023/05/20 06:02:53;;;;;;;4.50;3.30;;;;;;;;;;5082892;28;20213;-32
2023/05/20 06:05:20;;;;;;;4.07;3.43;;;;;;;;;;5086661;28;20247;-32
2023/05/20 06:07:47;;;;;;;5.33;3.97;;;;;;;;;;5082474;28;20205;-36
2023/05/20 06:10:14;;;;;;;3.67;3.30;;;;;;;;;;5085411;28;20211;-36
2023/05/20 06:12:43;;;;;;;6.23;3.67;;;;;;;;;;5085560;28;20201;-32
2023/05/20 06:15:10;;;;;;;4.70;3.70;;;;;;;;;;5080471;28;20206;-32
2023/05/20 06:17:37;;;;;;;3.83;3.53;;;;;;;;;;5080938;28;20441;-34
2023/05/20 06:20:05;;;;;;;5.10;3.60;;;;;;;;;;5086567;28;20354;-34
2023/05/20 06:22:32;;;;;;;4.77;3.40;;;;;;;;;;5086927;28;20206;-35
2023/05/20 06:25:01;;;;;;;3.97;3.20;;;;;;;;;;5075283;28;20211;-32
2023/05/20 06:27:28;;;;;;;4.60;3.77;;;;;;;;;;5084501;28;20204;-31
2023/05/20 06:29:56;;;;;;;3.67;3.37;;;;;;;;;;5083114;28;20200;-32
2023/05/20 06:32:24;;;;;;;4.10;3.73;;;;;;;;;;5078534;28;20211;-34
2023/05/20 06:34:51;;;;;;;3.70;3.40;;;;;;;;;;5089600;28;20212;-32
2023/05/20 06:37:18;;;;;;;4.03;3.57;;;;;;;;;;5090531;28;20220;-34
2023/05/20 06:39:46;;;;;;;5.07;3.40;;;;;;;;;;5076441;28;20228;-33
2023/05/20 06:42:13;;;;;;;4.70;4.20;;;;;;;;;;5081503;28;20207;-30
2023/05/20 06:44:40;;;;;;;4.47;4.07;;;;;;;;;;5090286;28;20208;-33
2023/05/20 06:47:08;;;;;;;4.03;3.63;;;;;;;;;;5075587;28;20315;-33
2023/05/20 06:49:36;;;;;;;4.37;3.97;;;;;;;;;;5081556;28;20203;-34
2023/05/20 06:52:03;;;;;;;6.83;3.93;;;;;;;;;;5086915;28;20205;-33
2023/05/20 06:54:32;;;;;;;4.30;3.90;;;;;;;;;;5083173;28;20196;-34
2023/05/20 06:57:00;;;;;;;6.13;3.90;;;;;;;;;;5085173;28;20225;-34
2023/05/20 06:59:27;;;;;;;4.67;3.87;;;;;;;;;;5089736;28;20574;-33
2023/05/20 07:01:54;;;;;;;4.23;3.80;;;;;;;;;;5076996;28;20579;-32
2023/05/20 07:04:22;;;;;;;3.73;3.40;;;;;;;;;;5077476;28;20464;-33
2023/05/20 07:06:49;;;;;;;4.00;3.70;;;;;;;;;;5087258;28;20217;-35
2023/05/20 07:09:17;;;;;;;5.07;4.00;;;;;;;;;;5083676;28;20198;-31
2023/05/20 07:11:44;;;;;;;4.33;3.67;;;;;;;;;;5082981;28;20209;-34
2023/05/20 07:14:11;;;;;;;3.90;3.50;;;;;;;;;;5087594;28;20229;-34
2023/05/20 07:16:38;;;;;;;4.13;3.57;;;;;;;;;;5081723;28;20240;-31
2023/05/20 07:19:05;;;;;;;4.50;4.10;;;;;;;;;;5087040;28;20233;-34
2023/05/20 07:21:35;;;;;;;4.20;3.80;;;;;;;;;;5089287;28;20229;-33
2023/05/20 07:24:06;;;;;;;4.20;3.40;;;;;;;;;;5084345;28;20202;-32
2023/05/20 07:26:35;;;;;;;4.57;3.70;;;;;;;;;;5086168;28;20222;-32
2023/05/20 07:29:02;;;;;;;3.97;3.67;;;;;;;;;;5093319;28;20205;-33
2023/05/20 07:31:29;;;;;;;4.13;3.70;;;;;;;;;;5081541;28;20208;-34
2023/05/20 07:33:56;;;;;;;3.70;3.40;;;;;;;;;;5088238;28;20229;-37
2023/05/20 07:36:23;;;;;;;4.20;3.80;;;;;;;;;;5088626;28;20254;-36
2023/05/20 07:38:52;;;;;;;4.60;3.90;;;;;;;;;;5089481;28;20212;-33
2023/05/20 07:41:21;;;;;;;4.03;3.73;;;;;;;;;;5077783;28;20216;-33
2023/05/20 07:43:48;;;;;;;4.03;3.67;;;;;;;;;;5087207;28;20226;-37
2023/05/20 07:46:16;;;;;;;4.90;3.87;;;;;;;;;;5079435;28;20224;-34
2023/05/20 07:48:43;;;;;;;4.57;3.93;;;;;;;;;;5086380;28;20212;-33
2023/05/20 07:51:11;;;;;;;5.10;3.90;;;;;;;;;;5088551;28;20197;-36
2023/05/20 07:53:38;;;;;;;4.93;3.40;;;;;;;;;;5088951;28;20295;-33
2023/05/20 07:56:07;;;;;;;5.00;4.27;;;;;;;;;;5078585;28;20223;-35
2023/05/20 07:58:34;;;;;;;4.70;4.30;;;;;;;;;;5087950;28;20212;-35
2023/05/20 08:01:01;;;;;;;5.30;4.03;;;;;;;;;;5079606;28;20457;-36
2023/05/20 08:03:28;;;;;;;3.83;3.43;;;;;;;;;;5082190;28;20684;-34
2023/05/20 08:05:55;;;;;;;4.80;3.70;;;;;;;;;;5090583;28;20219;-36
2023/05/20 08:08:22;;;;;;;5.07;4.10;;;;;;;;;;5089082;28;20201;-32
2023/05/20 08:10:49;;;;;;;3.97;3.60;;;;;;;;;;5074908;28;20208;-31
2023/05/20 08:13:17;;;;;;;4.07;3.73;;;;;;;;;;5084999;28;20208;-34
2023/05/20 08:15:47;;;;;;;4.80;4.20;;;;;;;;;;5082409;28;20571;-35
2023/05/20 08:18:14;;;;;;;5.90;4.10;;;;;;;;;;5082941;28;20329;-34
2023/05/20 08:20:42;;;;;;;4.37;3.97;;;;;;;;;;5089371;28;20208;-35
2023/05/20 08:23:09;;;;;;;4.40;4.00;;;;;;;;;;5087025;28;20266;-31
2023/05/20 08:25:37;;;;;;;4.53;4.07;;;;;;;;;;5080596;28;20224;-33
2023/05/20 08:28:05;;;;;;;7.07;4.17;;;;;;;;;;5089298;28;20197;-34
2023/05/20 08:30:34;;;;;;;4.63;4.20;;;;;;;;;;5082898;28;20254;-33
2023/05/20 08:33:01;;;;;;;6.37;5.00;;;;;;;;;;5082655;28;20239;-33
2023/05/20 08:35:28;;;;;;;4.37;3.97;;;;;;;;;;5088182;28;20220;-34
2023/05/20 08:37:55;;;;;;;4.57;4.17;;;;;;;;;;5085897;28;20221;-33
2023/05/20 08:40:23;;;;;;;4.97;4.37;;;;;;;;;;5083317;28;20214;-31
2023/05/20 08:42:51;;;;;;;4.40;3.80;;;;;;;;;;5089059;28;20198;-32
2023/05/20 08:45:19;;;;;;;4.40;4.00;;;;;;;;;;5085749;28;20305;-32
2023/05/20 08:47:48;;;;;;;3.97;3.57;;;;;;;;;;5080824;28;20485;-33
2023/05/20 08:50:15;;;;;;;4.33;3.93;;;;;;;;;;5086897;28;20209;-35
2023/05/20 08:52:43;;;;;;;5.87;4.43;;;;;;;;;;5087906;28;20197;-32
2023/05/20 08:55:14;;;;;;;4.87;3.83;;;;;;;;;;5076156;28;20264;-33
2023/05/20 08:57:44;;;;;;;4.53;3.37;;;;;;;;;;5087365;28;20253;-35
2023/05/20 09:00:12;;;;;;;5.13;4.07;;;;;;;;;;5083304;28;20215;-35
2023/05/20 09:02:39;;;;;;;4.00;3.43;;;;;;;;;;5080988;28;20376;-35
2023/05/20 09:05:10;;;;;;;3.90;3.60;;;;;;;;;;5085872;28;20210;-32
2023/05/20 09:07:38;;;;;;;3.90;3.50;;;;;;;;;;5079255;28;20220;-33
2023/05/20 09:10:05;;;;;;;4.13;3.57;;;;;;;;;;5076361;28;20214;-31
2023/05/20 09:12:32;;;;;;;3.80;3.27;;;;;;;;;;5086361;28;20194;-34
2023/05/20 09:14:59;;;;;;;3.57;3.23;;;;;;;;;;5082906;28;20215;-35
2023/05/20 09:17:26;;;;;;;3.70;3.40;;;;;;;;;;5083309;28;20219;-35
2023/05/20 09:19:54;;;;;;;4.20;3.80;;;;;;;;;;5086530;28;20203;-33
2023/05/20 09:22:26;;;;;;;6.20;3.27;;;;;;;;;;5086916;28;20217;-34
2023/05/20 09:24:53;;;;;;;4.07;3.67;;;;;;;;;;5080972;28;20321;-32
2023/05/20 09:27:21;;;;;;;5.57;3.57;;;;;;;;;;5078498;28;20213;-32
2023/05/20 09:29:48;;;;;;;3.73;3.43;;;;;;;;;;5084498;28;20208;-36
2023/05/20 09:32:15;;;;;;;3.87;3.40;;;;;;;;;;5075334;28;20286;-32
2023/05/20 09:34:44;;;;;;;3.87;3.50;;;;;;;;;;5086377;28;20194;-34
2023/05/20 09:37:12;;;;;;;3.57;3.10;;;;;;;;;;5086762;28;20236;-35
2023/05/20 09:39:47;;;;;;;5.47;3.50;;;;;;;;;;5082488;28;20202;-33
2023/05/20 09:42:18;;;;;;;4.30;3.90;;;;;;;;;;5084694;28;20227;-34
2023/05/20 09:44:45;;;;;;;4.17;3.83;;;;;;;;;;5086134;28;20217;-35
2023/05/20 09:47:13;;;;;;;3.13;2.90;;;;;;;;;;5079137;28;20226;-33
2023/05/20 09:49:41;;;;;;;3.70;3.40;;;;;;;;;;5086554;28;20206;-36
2023/05/20 09:52:08;;;;;;;3.60;3.30;;;;;;;;;;5087157;28;20213;-33
2023/05/20 09:54:36;;;;;;;3.80;3.40;;;;;;;;;;5083037;28;20205;-33
2023/05/20 09:57:05;;;;;;;4.67;4.20;;;;;;;;;;5084357;28;20235;-34
2023/05/20 09:59:33;;;;;;;3.87;3.57;;;;;;;;;;5086697;28;20217;-34
2023/05/20 10:02:00;;;;;;;5.37;3.30;;;;;;;;;;5075808;28;20201;-33
2023/05/20 10:04:28;;;;;;;4.03;3.63;;;;;;;;;;5085284;28;20203;-34
2023/05/20 10:07:10;;;;;;;3.77;3.40;;;;;;;;;;5087129;28;20235;-32
2023/05/20 10:09:46;;;;;;;4.03;3.43;;;;;;;;;;5084218;28;20688;-34
2023/05/20 10:12:20;;;;;;;4.40;3.87;;;;;;;;;;5080114;28;20213;-36
2023/05/20 10:14:50;;;;;;;4.47;3.80;;;;;;;;;;5085659;28;20198;-36
2023/05/20 10:17:19;;;;;;;4.10;3.60;;;;;;;;;;5077387;28;20242;-33
2023/05/20 10:19:46;;;;;;;5.70;3.73;;;;;;;;;;5088540;28;20212;-33
2023/05/20 10:25:05;;;;;;;5.37;3.60;;;;;;;;;;5165839;22;20684;-30
2023/05/20 10:27:54;;;;;;;5.53;4.10;;;;;;;;;;5290967;22;20235;-28
2023/05/20 10:30:29;;;;;;;4.50;3.37;;;;;;;;;;5069237;28;20216;-30
2023/05/20 10:33:12;;;;;;;4.17;3.20;;;;;;;;;;5070839;28;20215;-27
2023/05/20 10:35:58;;;;;;;3.83;3.47;;;;;;;;;;5069208;28;20265;-30
2023/05/20 10:44:38;;;;;;;5.67;3.73;;;;;;;;;;5037599;28;20204;-27
2023/05/20 10:47:39;;;;;;;4.23;3.53;;;;;;;;;;5453129;22;20240;-28
2023/05/20 10:54:02;;;;;;;;;;;;;;;;;;;;;
2023/05/20 10:57:01;;;;;;;5.20;3.30;;;;;;;;;;4951468;28;20230;-29
2023/05/20 10:59:44;;;;;;;3.40;3.20;;;;;;;;;;5068760;28;20207;-26
2023/05/20 11:02:36;;;;;;;4.83;3.30;;;;;;;;;;5052034;28;20217;-28
2023/05/20 11:05:38;;;;;;;;;;;;;;;;;;;;;
2023/05/20 11:08:38;;;;;;;4.40;3.67;;;;;;;;;;4943479;28;20215;-27
2023/05/20 11:14:19;;;;;;;3.90;3.60;;;;;;;;;;5000661;28;20214;-29
2023/05/20 11:17:06;;;;;;;3.70;3.40;;;;;;;;;;4987394;28;20225;-28
2023/05/20 11:19:46;;;;;;;3.93;3.53;;;;;;;;;;5044809;28;20221;-27
2023/05/20 11:22:28;;;;;;;4.33;3.93;;;;;;;;;;5075263;28;20225;-30
2023/05/20 11:25:10;;;;;;;4.17;3.07;;;;;;;;;;5072960;28;20560;-29
2023/05/20 11:27:45;;;;;;;5.10;3.30;;;;;;;;;;5058557;28;20200;-27
2023/05/20 11:30:29;;;;;;;2.90;2.70;;;;;;;;;;5071535;28;20221;-28
2023/05/20 11:39:14;;;;;;;3.23;2.97;;;;;;;;;;5060104;28;20230;-26
2023/05/20 11:48:03;;;;;;;3.40;3.10;;;;;;;;;;5063086;28;20225;-28
2023/05/20 12:15:37;;;;;;;6.03;3.40;;;;;;;;;;5032958;28;20697;-27
2023/05/20 12:18:36;;;;;;;3.50;3.17;;;;;;;;;;5036148;28;20307;-29
2023/05/20 12:21:36;;;;;;;;;;;;;;;;;;;;;
2023/05/20 12:42:31;;;;;;;;;;;;;;;;;;;;;
2023/05/20 13:03:19;;;;;;;;;;;;;;;;;;;;;
2023/05/20 13:15:18;;;;;;;2.90;2.60;;;;;;;;;;5002422;28;20214;-29
2023/05/20 13:27:48;;;;;;;3.10;2.80;;;;;;;;;;4993958;28;20215;-30
2023/05/20 13:39:28;;;;;;;3.50;2.60;;;;;;;;;;5058548;28;20366;-32
2023/05/20 13:42:11;;;;;;;2.90;2.70;;;;;;;;;;5071727;28;20668;-29
2023/05/20 13:44:58;;;;;;;3.00;2.77;;;;;;;;;;5071546;28;20258;-26
2023/05/20 13:56:39;;;;;;;4.77;3.03;;;;;;;;;;4982247;28;20225;-27
2023/05/20 13:59:24;;;;;;;7.80;2.70;;;;;;;;;;4931946;29;20230;-29
2023/05/20 14:02:05;;;;;;;3.00;2.80;;;;;;;;;;5002109;28;20264;-27
2023/05/20 14:11:11;;;;;;;2.87;2.57;;;;;;;;;;5034511;28;20272;-28
2023/05/20 14:14:10;;;;;;;2.47;2.27;;;;;;;;;;5036399;28;20202;-29
2023/05/20 14:20:27;;;;;;;2.90;2.70;;;;;;;;;;4969251;28;20219;-25
2023/05/20 14:30:04;;;;;;;;;;;;;;;;;;;;;
2023/05/20 14:44:39;;;;;;;3.00;2.70;;;;;;;;;;4974662;28;20215;-30
2023/05/20 14:47:27;;;;;;;3.00;2.70;;;;;;;;;;4972044;28;20227;-27
2023/05/20 14:53:07;;;;;;;3.77;2.80;;;;;;;;;;5061007;28;20240;-28
2023/05/20 14:59:17;;;;;;;3.40;2.67;;;;;;;;;;5055207;28;20250;-26
2023/05/20 15:17:28;;;;;;;5.20;3.00;;;;;;;;;;4243712;27;25403482;-39
2023/05/20 15:23:15;;;;;;;4.70;2.90;;;;;;;;;;5114979;28;20230;-36
2023/05/20 15:25:59;;;;;;;4.23;3.17;;;;;;;;;;5115628;28;20261;-35
2023/05/20 15:38:05;;;;;;;2.97;2.77;;;;;;;;;;5124968;28;20207;-36
2023/05/20 15:43:03;;;;;;;3.10;2.90;;;;;;;;;;5492474;22;20295;-27
2023/05/20 15:45:46;;;;;;;4.27;2.70;;;;;;;;;;5061583;28;20232;-28
2023/05/20 15:51:39;;;;;;;3.27;2.90;;;;;;;;;;5018904;28;20217;-27
2023/05/20 15:54:35;;;;;;;3.70;3.40;;;;;;;;;;5047899;28;20723;-30
2023/05/20 15:57:25;;;;;;;3.30;3.07;;;;;;;;;;5046188;28;20225;-31
2023/05/20 16:00:00;;;;;;;6.07;3.50;;;;;;;;;;5034527;28;20210;-26
2023/05/20 16:05:44;;;;;;;;;;;;;;;;;;;;;
2023/05/20 16:23:26;;;;;;;2.90;2.70;;;;;;;;;;4984653;28;20208;-27
2023/05/20 16:26:23;;;;;;;3.00;2.80;;;;;;;;;;4978363;28;20236;-30
2023/05/20 16:32:15;;;;;;;2.67;2.47;;;;;;;;;;4929141;29;20288;-29
2023/05/20 16:40:29;;;;;;;3.00;2.73;;;;;;;;;;5064704;28;20513;-35
2023/05/20 16:42:56;;;;;;;2.63;2.43;;;;;;;;;;5064908;28;20209;-40
2023/05/20 16:45:23;;;;;;;2.30;2.10;;;;;;;;;;5063687;28;20236;-40
2023/05/20 16:47:50;;;;;;;2.67;2.20;;;;;;;;;;5064195;28;20280;-40
2023/05/20 16:50:19;;;;;;;2.33;2.20;;;;;;;;;;5069224;28;20205;-38
2023/05/20 16:52:46;;;;;;;3.17;2.22;;;;;;;;;;5069187;28;20197;-41
2023/05/20 16:55:13;;;;;;;2.83;2.40;;;;;;;;;;5062873;28;20293;-37
2023/05/20 16:57:41;;;;;;;2.80;2.20;;;;;;;;;;5062855;28;20444;-40
2023/05/20 17:00:10;;;;;;;2.07;1.93;;;;;;;;;;5065360;28;20404;-35
2023/05/20 17:02:37;;;;;;;2.40;2.20;;;;;;;;;;5064162;28;20194;-38
2023/05/20 17:05:04;;;;;;;2.70;2.50;;;;;;;;;;5065040;28;20224;-43
2023/05/20 17:07:33;;;;;;;6.53;2.90;;;;;;;;;;5069500;28;20200;-36
2023/05/20 17:10:00;;;;;;;3.50;2.70;;;;;;;;;;5065663;28;20241;-39
2023/05/20 17:12:27;;;;;;;3.03;2.83;;;;;;;;;;5068315;28;20227;-41
2023/05/20 17:14:54;;;;;;;3.87;2.70;;;;;;;;;;5065547;28;20216;-41
2023/05/20 17:17:21;;;;;;;2.93;2.53;;;;;;;;;;5066862;28;20228;-36
2023/05/20 17:19:48;;;;;;;4.07;2.80;;;;;;;;;;5067923;28;20539;-36
2023/05/20 17:22:16;;;;;;;5.10;2.93;;;;;;;;;;5069482;28;20750;-40
2023/05/20 17:24:45;;;;;;;3.37;2.60;;;;;;;;;;5056100;28;20211;-40
2023/05/20 17:27:12;;;;;;;2.77;2.50;;;;;;;;;;5066654;28;20215;-37
2023/05/20 17:29:39;;;;;;;2.70;2.50;;;;;;;;;;5051868;28;20209;-37
2023/05/20 17:32:06;;;;;;;4.03;2.90;;;;;;;;;;5056195;28;20256;-36
2023/05/20 17:34:34;;;;;;;4.53;2.80;;;;;;;;;;5065150;28;20520;-43
2023/05/20 17:37:01;;;;;;;4.80;3.20;;;;;;;;;;5071341;28;20216;-39
2023/05/20 17:39:28;;;;;;;3.37;2.67;;;;;;;;;;5061591;28;20220;-36
2023/05/20 17:41:56;;;;;;;3.20;2.93;;;;;;;;;;5071100;28;20216;-37
2023/05/20 17:44:23;;;;;;;2.80;2.60;;;;;;;;;;5071168;28;20203;-37
2023/05/20 17:46:50;;;;;;;3.03;2.73;;;;;;;;;;5061209;28;20307;-39
2023/05/20 17:49:18;;;;;;;3.07;2.80;;;;;;;;;;5070552;28;20246;-35
2023/05/20 17:51:45;;;;;;;4.80;2.70;;;;;;;;;;5067869;28;20316;-38
2023/05/20 17:54:12;;;;;;;3.20;2.90;;;;;;;;;;5061422;28;20240;-40
2023/05/20 17:56:39;;;;;;;3.57;3.07;;;;;;;;;;5054780;28;20240;-41
2023/05/20 17:59:10;;;;;;;3.00;2.77;;;;;;;;;;5071198;28;20197;-38
2023/05/20 18:01:37;;;;;;;4.73;3.00;;;;;;;;;;5061348;28;20275;-39
2023/05/20 18:04:05;;;;;;;4.40;2.90;;;;;;;;;;5069760;28;20206;-35
2023/05/20 18:06:33;;;;;;;3.00;2.70;;;;;;;;;;5065229;28;20217;-40
2023/05/20 18:09:00;;;;;;;2.97;2.77;;;;;;;;;;5052700;28;20235;-40
2023/05/20 18:11:27;;;;;;;3.30;2.77;;;;;;;;;;5059679;28;20212;-36
2023/05/20 18:13:57;;;;;;;3.37;2.80;;;;;;;;;;5066580;28;20212;-33
2023/05/20 18:16:26;;;;;;;3.43;3.00;;;;;;;;;;5056501;28;20225;-40
2023/05/20 18:18:53;;;;;;;5.93;3.57;;;;;;;;;;5066519;28;20205;-39
2023/05/20 18:21:24;;;;;;;4.30;3.30;;;;;;;;;;5064822;28;20205;-40
2023/05/20 18:23:51;;;;;;;3.50;3.20;;;;;;;;;;5062849;28;20333;-35
2023/05/20 18:26:18;;;;;;;4.87;3.27;;;;;;;;;;5065933;28;20232;-39
2023/05/20 18:28:45;;;;;;;4.50;2.87;;;;;;;;;;5067028;28;20205;-41
2023/05/20 18:31:12;;;;;;;3.90;3.50;;;;;;;;;;5053995;28;20217;-37
2023/05/20 18:33:41;;;;;;;4.97;3.27;;;;;;;;;;5066057;28;20231;-36
2023/05/20 18:36:09;;;;;;;3.57;3.10;;;;;;;;;;5066119;28;20224;-37
2023/05/20 18:38:36;;;;;;;7.10;3.47;;;;;;;;;;5063040;28;20238;-41
2023/05/20 18:41:04;;;;;;;3.60;3.30;;;;;;;;;;5058441;28;20208;-37
2023/05/20 18:43:32;;;;;;;8.60;4.50;;;;;;;;;;5064853;28;20212;-40
2023/05/20 18:45:59;;;;;;;6.10;3.40;;;;;;;;;;5060701;28;20222;-39
2023/05/20 18:48:26;;;;;;;3.80;3.40;;;;;;;;;;5063243;28;20231;-38
2023/05/20 18:50:54;;;;;;;3.90;3.50;;;;;;;;;;5065853;28;20218;-41
2023/05/20 18:53:22;;;;;;;4.37;3.30;;;;;;;;;;5065449;28;20212;-39
2023/05/20 18:55:49;;;;;;;5.13;3.27;;;;;;;;;;5057755;28;20220;-43
2023/05/20 18:58:16;;;;;;;4.40;3.50;;;;;;;;;;5063137;28;20218;-40
2023/05/20 19:00:43;;;;;;;4.80;3.57;;;;;;;;;;5062505;28;20207;-39
2023/05/20 19:03:11;;;;;;;3.47;3.17;;;;;;;;;;5065367;28;20196;-41
2023/05/20 19:05:38;;;;;;;3.90;3.50;;;;;;;;;;5065961;28;20227;-37
2023/05/20 19:08:08;;;;;;;5.07;3.40;;;;;;;;;;5065858;28;20215;-44
2023/05/20 19:10:35;;;;;;;3.73;3.40;;;;;;;;;;5058536;28;20204;-41
2023/05/20 19:13:02;;;;;;;3.77;3.13;;;;;;;;;;5063817;28;20204;-40
2023/05/20 19:15:30;;;;;;;3.80;3.13;;;;;;;;;;5062420;28;20215;-38
2023/05/20 19:17:57;;;;;;;3.57;3.17;;;;;;;;;;5065563;28;20256;-42
2023/05/20 19:20:24;;;;;;;5.10;3.50;;;;;;;;;;5067110;28;20211;-35
2023/05/20 19:22:51;;;;;;;3.63;3.30;;;;;;;;;;5066304;28;20212;-40
2023/05/20 19:25:20;;;;;;;5.47;3.63;;;;;;;;;;5058438;28;20229;-37
2023/05/20 19:27:47;;;;;;;4.00;3.37;;;;;;;;;;5062714;28;20208;-32
2023/05/20 19:30:14;;;;;;;4.27;3.40;;;;;;;;;;5060769;28;20214;-37
2023/05/20 19:32:41;;;;;;;3.77;3.43;;;;;;;;;;5059197;28;20211;-42
2023/05/20 19:35:09;;;;;;;4.63;3.60;;;;;;;;;;5065164;28;20199;-41
2023/05/20 19:37:36;;;;;;;4.73;4.23;;;;;;;;;;5067101;28;20223;-39
2023/05/20 19:40:03;;;;;;;4.93;3.87;;;;;;;;;;5065528;28;20226;-42
2023/05/20 19:42:33;;;;;;;3.87;3.47;;;;;;;;;;5067801;28;20208;-41
2023/05/20 19:45:00;;;;;;;5.53;4.07;;;;;;;;;;5061727;28;20218;-38
2023/05/20 19:47:27;;;;;;;4.40;3.97;;;;;;;;;;5061397;28;20216;-39
2023/05/20 19:49:55;;;;;;;4.77;3.67;;;;;;;;;;5065572;28;20205;-34
2023/05/20 19:52:22;;;;;;;5.30;4.73;;;;;;;;;;5068763;28;20225;-42
2023/05/20 19:54:49;;;;;;;5.60;4.07;;;;;;;;;;5068913;28;20207;-41
2023/05/20 19:57:16;;;;;;;5.43;4.07;;;;;;;;;;5060768;28;20228;-40
2023/05/20 19:59:45;;;;;;;4.20;3.83;;;;;;;;;;5057743;28;20219;-37
2023/05/20 20:02:12;;;;;;;4.80;3.77;;;;;;;;;;5054116;28;20212;-42
2023/05/20 20:04:40;;;;;;;7.87;4.53;;;;;;;;;;5068143;28;20200;-40
2023/05/20 20:07:08;;;;;;;4.13;3.47;;;;;;;;;;5068567;28;20242;-37
2023/05/20 20:09:35;;;;;;;6.07;3.93;;;;;;;;;;5058071;28;20230;-42
2023/05/20 20:12:02;;;;;;;5.13;4.63;;;;;;;;;;5068241;28;20195;-38
2023/05/20 20:14:30;;;;;;;5.50;4.57;;;;;;;;;;5066166;28;20238;-39
2023/05/20 20:16:58;;;;;;;5.00;4.23;;;;;;;;;;5054559;28;20238;-38
2023/05/20 20:19:27;;;;;;;4.37;3.97;;;;;;;;;;5068487;28;20198;-40
2023/05/20 20:21:56;;;;;;;8.50;4.10;;;;;;;;;;5068872;28;20293;-41
2023/05/20 20:24:24;;;;;;;6.57;4.43;;;;;;;;;;5061304;28;20208;-41
2023/05/20 20:26:52;;;;;;;5.37;4.63;;;;;;;;;;5068464;28;20213;-39
2023/05/20 20:29:20;;;;;;;7.60;4.37;;;;;;;;;;5068644;28;20494;-41
2023/05/20 20:31:47;;;;;;;7.63;5.03;;;;;;;;;;5055658;28;20215;-41
2023/05/20 20:34:15;;;;;;;5.07;4.47;;;;;;;;;;5065295;28;20243;-38
2023/05/20 20:36:43;;;;;;;4.77;4.37;;;;;;;;;;5068037;28;20226;-39
2023/05/20 20:39:17;;;;;;;5.10;4.50;;;;;;;;;;5065764;28;20242;-36
2023/05/20 20:41:44;;;;;;;4.90;4.43;;;;;;;;;;5060060;28;20246;-42
2023/05/20 20:44:15;;;;;;;5.50;4.07;;;;;;;;;;5067653;28;20555;-36
2023/05/20 20:46:42;;;;;;;5.30;4.50;;;;;;;;;;5056643;28;20253;-37
2023/05/20 20:49:09;;;;;;;5.33;4.30;;;;;;;;;;5063423;28;20333;-42
2023/05/20 20:51:38;;;;;;;5.77;4.37;;;;;;;;;;5067910;28;20520;-38
2023/05/20 20:54:06;;;;;;;6.20;4.47;;;;;;;;;;5055994;28;20209;-39
2023/05/20 20:56:35;;;;;;;6.47;5.33;;;;;;;;;;5066475;28;20765;-42
2023/05/20 20:59:03;;;;;;;8.13;5.73;;;;;;;;;;5067897;28;20209;-41
2023/05/20 21:01:34;;;;;;;5.20;4.63;;;;;;;;;;5058799;28;20199;-39
2023/05/20 21:04:08;;;;;;;6.03;4.77;;;;;;;;;;5057811;28;20286;-38
2023/05/20 21:06:38;;;;;;;5.23;4.73;;;;;;;;;;5065667;28;20283;-40
2023/05/20 21:09:06;;;;;;;6.57;4.83;;;;;;;;;;5067903;28;20249;-37
2023/05/20 21:11:33;;;;;;;5.53;4.33;;;;;;;;;;5057094;28;20299;-40
2023/05/20 21:14:00;;;;;;;5.03;4.50;;;;;;;;;;5064026;28;20194;-41
2023/05/20 21:16:27;;;;;;;5.50;4.90;;;;;;;;;;5058310;28;20243;-40
2023/05/20 21:18:54;;;;;;;6.70;4.70;;;;;;;;;;5066521;28;20671;-41
2023/05/20 21:21:21;;;;;;;5.13;4.43;;;;;;;;;;5067044;28;20209;-40
2023/05/20 21:23:51;;;;;;;4.77;4.23;;;;;;;;;;5067169;28;20221;-42
2023/05/20 21:26:20;;;;;;;5.77;4.80;;;;;;;;;;5050190;28;20226;-38
2023/05/20 21:28:47;;;;;;;5.90;5.27;;;;;;;;;;5065162;28;20517;-39
2023/05/20 21:31:14;;;;;;;7.33;5.33;;;;;;;;;;5055624;28;20204;-40
2023/05/20 21:33:41;;;;;;;7.10;6.00;;;;;;;;;;5065842;28;20243;-37
2023/05/20 21:36:08;;;;;;;7.80;6.13;;;;;;;;;;5065732;28;20222;-36
2023/05/20 21:38:35;;;;;;;7.93;7.07;;;;;;;;;;5066848;28;20219;-39
2023/05/20 21:41:04;;;;;;;6.20;5.13;;;;;;;;;;5061701;28;20225;-42
2023/05/20 21:43:31;;;;;;;5.50;5.00;;;;;;;;;;5063035;28;20296;-36
2023/05/20 21:45:58;;;;;;;5.80;5.00;;;;;;;;;;5056402;28;20228;-41
2023/05/20 21:48:25;;;;;;;5.90;5.27;;;;;;;;;;5064730;28;20206;-41
2023/05/20 21:50:53;;;;;;;8.87;5.50;;;;;;;;;;5065413;28;20206;-42
2023/05/20 21:53:20;;;;;;;5.80;5.23;;;;;;;;;;5066267;28;20211;-40
2023/05/20 21:55:47;;;;;;;6.10;5.17;;;;;;;;;;5059403;28;20316;-38
2023/05/20 21:58:16;;;;;;;6.53;4.97;;;;;;;;;;5065915;28;20227;-42
2023/05/20 22:00:43;;;;;;;6.13;5.37;;;;;;;;;;5061349;28;20205;-42
2023/05/20 22:03:11;;;;;;;7.60;5.50;;;;;;;;;;5061518;28;20228;-36
2023/05/20 22:05:38;;;;;;;11.87;5.57;;;;;;;;;;5058805;28;20304;-43
2023/05/20 22:08:06;;;;;;;8.97;5.60;;;;;;;;;;5066529;28;20203;-39
2023/05/20 22:10:35;;;;;;;5.53;5.03;;;;;;;;;;5059402;28;20644;-41
2023/05/20 22:13:02;;;;;;;5.80;5.23;;;;;;;;;;5062997;28;20205;-41